Time;durP1;ratioP1;P1;durP2;ratioP2;P2;SDS_P1;SDS_P2;PMS_P1;PMS_P2;Temp;Humidity;BMP_temperature;BMP_pressure;BME280_temperature;BME280_humidity;BME280_pressure;Samples;Min_cycle;Max_cycle;Signal;HPM_P1;HPM_P2
2021/07/31 00:01:13;;;;;;;0.00;0.00;;;;;;;26.65;49.46;98330.78;5012536;28;20400;-76
2021/07/31 00:03:39;;;;;;;0.20;0.20;;;;;;;26.64;49.46;98326.50;5012272;28;20033;-75
2021/07/31 00:06:05;;;;;;;0.10;0.10;;;;;;;26.61;49.72;98325.31;5012025;28;20029;-75
2021/07/31 00:08:31;;;;;;;0.15;0.15;;;;;;;26.65;49.77;98328.81;5010852;28;20128;-75
2021/07/31 00:10:57;;;;;;;0.00;0.00;;;;;;;26.63;49.89;98328.44;5012337;28;20120;-75
2021/07/31 00:13:24;;;;;;;0.10;0.10;;;;;;;26.60;49.92;98329.25;5012325;28;20401;-75
2021/07/31 00:15:49;;;;;;;0.20;0.20;;;;;;;26.58;49.98;98322.63;5011933;28;20030;-75
2021/07/31 00:18:15;;;;;;;0.32;0.15;;;;;;;26.54;50.17;98328.13;5011836;28;20497;-75
2021/07/31 00:20:41;;;;;;;0.30;0.30;;;;;;;26.54;50.58;98328.13;5012180;28;20026;-75
2021/07/31 00:23:07;;;;;;;0.00;0.00;;;;;;;26.52;50.60;98327.72;5012088;28;20057;-75
2021/07/31 00:25:32;;;;;;;0.00;0.00;;;;;;;26.51;50.66;98321.47;5011424;28;20127;-75
2021/07/31 00:27:58;;;;;;;0.30;0.28;;;;;;;26.52;50.79;98333.22;5011828;28;20029;-75
2021/07/31 00:30:25;;;;;;;0.10;0.10;;;;;;;26.57;51.03;98330.03;5011511;28;20069;-76
2021/07/31 00:32:51;;;;;;;0.15;0.15;;;;;;;26.60;50.79;98326.50;5011645;28;20551;-76
2021/07/31 00:35:17;;;;;;;0.00;0.00;;;;;;;26.57;51.48;98335.53;5011610;28;20417;-75
2021/07/31 00:37:42;;;;;;;0.10;0.10;;;;;;;26.55;51.81;98332.41;5011377;28;20059;-75
2021/07/31 00:40:09;;;;;;;0.00;0.00;;;;;;;26.59;51.64;98343.38;5011583;28;20029;-75
2021/07/31 00:42:37;;;;;;;0.17;0.17;;;;;;;26.59;51.84;98343.38;5011726;28;20490;-75
2021/07/31 00:45:03;;;;;;;0.10;0.10;;;;;;;26.57;51.97;98338.25;5011386;28;20030;-75
2021/07/31 00:47:28;;;;;;;0.00;0.00;;;;;;;26.58;52.28;98330.84;5011166;28;20037;-75
2021/07/31 00:49:54;;;;;;;0.20;0.20;;;;;;;26.57;52.09;98330.03;5011533;28;20053;-75
2021/07/31 00:52:19;;;;;;;0.00;0.00;;;;;;;26.60;52.25;98325.72;5010175;28;20029;-75
2021/07/31 00:54:45;;;;;;;0.00;0.00;;;;;;;26.62;52.24;98332.38;5011882;28;20488;-75
2021/07/31 00:57:14;;;;;;;0.10;0.10;;;;;;;26.64;52.56;98338.22;5011621;28;20025;-76
2021/07/31 00:59:39;;;;;;;0.15;0.10;;;;;;;26.59;52.68;98327.69;5011532;28;20034;-75
2021/07/31 01:02:05;;;;;;;0.00;0.00;;;;;;;26.60;53.10;98333.94;5011591;28;20026;-75
2021/07/31 01:04:30;;;;;;;0.00;0.00;;;;;;;26.58;53.02;98333.56;5011168;28;20025;-75
2021/07/31 01:06:56;;;;;;;0.00;0.00;;;;;;;26.61;52.82;98333.56;5011436;28;20033;-76
2021/07/31 01:09:21;;;;;;;0.00;0.00;;;;;;;26.65;52.76;98326.06;5009990;28;20044;-76
2021/07/31 01:11:47;;;;;;;0.20;0.10;;;;;;;26.58;53.80;98331.59;5011078;28;20026;-76
2021/07/31 01:14:12;;;;;;;0.08;0.08;;;;;;;26.49;53.61;98331.28;5011400;28;20045;-75
2021/07/31 01:16:38;;;;;;;0.10;0.10;;;;;;;26.39;54.26;98332.13;5011189;28;20037;-75
2021/07/31 01:19:03;;;;;;;0.00;0.00;;;;;;;26.32;54.32;98321.97;5011367;28;20065;-75
2021/07/31 01:21:44;;;;;;;0.00;0.00;;;;;;;26.28;54.58;98326.69;5011146;28;20030;-75
2021/07/31 01:24:12;;;;;;;0.30;0.30;;;;;;;26.21;54.84;98322.81;5011570;28;20037;-75
2021/07/31 01:26:40;;;;;;;0.00;0.00;;;;;;;26.18;54.83;98322.81;5010995;28;20132;-75
2021/07/31 01:29:08;;;;;;;0.00;0.00;;;;;;;26.13;54.91;98320.50;5011263;28;20026;-76
2021/07/31 01:31:34;;;;;;;0.13;0.13;;;;;;;26.12;54.89;98318.94;5011032;28;20030;-75
2021/07/31 01:34:01;;;;;;;0.05;0.05;;;;;;;26.15;55.02;98315.41;5011204;28;20312;-75
2021/07/31 01:36:26;;;;;;;0.00;0.00;;;;;;;26.15;55.12;98318.16;5010899;28;20152;-75
2021/07/31 01:38:51;;;;;;;0.00;0.00;;;;;;;26.15;55.67;98320.91;5011464;28;20117;-75
2021/07/31 01:41:17;;;;;;;0.00;0.00;;;;;;;26.13;55.55;98318.53;5011139;28;20018;-75
2021/07/31 01:43:43;;;;;;;0.00;0.00;;;;;;;26.17;55.31;98316.56;5011070;28;20533;-75
2021/07/31 01:46:09;;;;;;;0.00;0.00;;;;;;;26.15;55.54;98313.44;5011030;28;20053;-74
2021/07/31 01:48:34;;;;;;;0.35;0.35;;;;;;;26.16;55.54;98315.00;5011055;28;20052;-75
2021/07/31 01:50:59;;;;;;;0.08;0.08;;;;;;;26.19;55.77;98316.16;5011061;28;20022;-75
2021/07/31 01:53:25;;;;;;;0.10;0.10;;;;;;;26.20;55.58;98315.75;5010858;28;20117;-75
2021/07/31 01:55:50;;;;;;;0.00;0.00;;;;;;;26.23;55.24;98316.91;5011023;28;20051;-75
2021/07/31 01:58:16;;;;;;;0.00;0.00;;;;;;;26.26;53.39;98320.84;5010960;28;20117;-75
2021/07/31 02:00:41;;;;;;;0.00;0.00;;;;;;;26.26;51.79;98318.88;5012334;28;20473;-75
2021/07/31 02:03:07;;;;;;;0.00;0.00;;;;;;;26.26;51.75;98316.13;5014484;28;20034;-75
2021/07/31 02:05:32;;;;;;;0.00;0.00;;;;;;;26.28;51.32;98316.53;5014144;28;20032;-75
2021/07/31 02:07:57;;;;;;;0.10;0.10;;;;;;;26.29;51.20;98325.50;5014280;28;20033;-75
2021/07/31 02:10:23;;;;;;;0.20;0.20;;;;;;;26.30;50.75;98321.59;5014652;28;20018;-75
2021/07/31 02:12:50;;;;;;;0.00;0.00;;;;;;;26.27;50.55;98322.38;5014631;28;20052;-75
2021/07/31 02:15:16;;;;;;;0.00;0.00;;;;;;;26.22;50.05;98329.09;5014447;28;20030;-75
2021/07/31 02:17:41;;;;;;;0.00;0.00;;;;;;;26.17;50.15;98322.06;5014166;28;20491;-75
2021/07/31 02:20:07;;;;;;;0.05;0.05;;;;;;;26.14;50.59;98330.28;5014134;28;20033;-75
2021/07/31 02:22:33;;;;;;;0.10;0.10;;;;;;;26.07;50.75;98331.09;5014017;28;20030;-76
2021/07/31 02:24:58;;;;;;;0.00;0.00;;;;;;;26.03;50.81;98331.06;5014066;28;20493;-76
2021/07/31 02:27:23;;;;;;;0.00;0.00;;;;;;;25.98;51.37;98334.22;5014249;28;20025;-76
2021/07/31 02:29:49;;;;;;;0.00;0.00;;;;;;;25.97;51.40;98329.91;5014032;28;20155;-76
2021/07/31 02:32:14;;;;;;;0.00;0.00;;;;;;;25.95;51.75;98329.56;5014148;28;20029;-75
2021/07/31 02:34:40;;;;;;;0.00;0.00;;;;;;;25.90;51.87;98329.94;5013850;28;20481;-76
2021/07/31 02:37:05;;;;;;;0.28;0.10;;;;;;;25.84;52.07;98317.84;5013814;28;20030;-76
2021/07/31 02:39:30;;;;;;;0.00;0.00;;;;;;;25.85;52.03;98333.09;5014009;28;20041;-76
2021/07/31 02:41:56;;;;;;;0.08;0.08;;;;;;;25.79;52.02;98329.97;5013833;28;20029;-76
2021/07/31 02:44:21;;;;;;;0.00;0.00;;;;;;;25.78;52.28;98331.19;5014166;28;20604;-76
2021/07/31 02:46:47;;;;;;;0.00;0.00;;;;;;;25.77;52.04;98331.56;5013498;28;20037;-76
2021/07/31 02:49:12;;;;;;;0.00;0.00;;;;;;;25.71;51.89;98331.97;5013562;28;20034;-76
2021/07/31 02:51:37;;;;;;;0.00;0.00;;;;;;;25.69;52.02;98333.53;5013215;28;20464;-76
2021/07/31 02:54:03;;;;;;;0.00;0.00;;;;;;;25.67;52.00;98333.94;5013400;28;20026;-76
2021/07/31 02:56:28;;;;;;;0.00;0.00;;;;;;;25.63;52.38;98337.88;5013465;28;20054;-76
2021/07/31 02:58:53;;;;;;;0.00;0.00;;;;;;;25.57;52.29;98342.94;5013637;28;20033;-75
2021/07/31 03:01:19;;;;;;;0.00;0.00;;;;;;;25.55;52.56;98340.63;5013599;28;20026;-75
2021/07/31 03:03:44;;;;;;;0.00;0.00;;;;;;;25.52;52.72;98335.94;5013337;28;20536;-76
2021/07/31 03:06:10;;;;;;;0.00;0.00;;;;;;;25.49;52.94;98342.19;5013141;28;20484;-76
2021/07/31 03:08:35;;;;;;;0.00;0.00;;;;;;;25.49;53.17;98350.41;5012978;28;20037;-75
2021/07/31 03:11:06;;;;;;;0.10;0.10;;;;;;;25.45;53.34;98341.44;5013131;28;20088;-76
2021/07/31 03:13:31;;;;;;;0.00;0.00;;;;;;;25.49;53.41;98344.16;5012884;28;20026;-76
2021/07/31 03:15:57;;;;;;;0.00;0.00;;;;;;;25.47;53.90;98351.97;5012036;28;20048;-76
2021/07/31 03:18:23;;;;;;;0.00;0.00;;;;;;;25.44;53.86;98353.53;5013267;28;20132;-75
2021/07/31 03:20:50;;;;;;;0.00;0.00;;;;;;;25.39;53.64;98346.50;5013014;28;20403;-76
2021/07/31 03:23:17;;;;;;;0.00;0.00;;;;;;;25.40;53.99;98345.34;5013283;28;20034;-76
2021/07/31 03:25:43;;;;;;;0.00;0.00;;;;;;;25.37;53.75;98331.63;5012486;28;20521;-76
2021/07/31 03:28:08;;;;;;;0.00;0.00;;;;;;;25.39;53.58;98345.75;5011531;28;20072;-76
2021/07/31 03:30:38;;;;;;;0.00;0.00;;;;;;;25.39;53.93;98343.78;5012534;28;20022;-75
2021/07/31 03:33:03;;;;;;;0.00;0.00;;;;;;;25.40;53.38;98353.53;5013185;28;20096;-75
2021/07/31 03:35:29;;;;;;;0.38;0.38;;;;;;;25.41;53.29;98349.63;5011685;28;20485;-75
2021/07/31 03:37:54;;;;;;;0.00;0.00;;;;;;;25.43;52.70;98351.97;5012483;28;20026;-75
2021/07/31 03:40:20;;;;;;;0.10;0.10;;;;;;;25.44;52.77;98345.34;5012901;28;20029;-75
2021/07/31 03:42:45;;;;;;;0.10;0.10;;;;;;;25.49;52.86;98355.09;5012524;28;20053;-76
2021/07/31 03:45:11;;;;;;;0.00;0.00;;;;;;;25.54;52.84;98357.44;5012633;28;20159;-75
2021/07/31 03:47:36;;;;;;;0.00;0.00;;;;;;;25.60;52.79;98355.88;5012180;28;20025;-76
2021/07/31 03:50:02;;;;;;;0.30;0.30;;;;;;;25.64;52.32;98353.88;5011503;28;20116;-77
2021/07/31 03:52:27;;;;;;;0.00;0.00;;;;;;;25.72;52.19;98360.16;5012689;28;20029;-76
2021/07/31 03:54:52;;;;;;;0.10;0.10;;;;;;;25.83;52.25;98347.19;5012319;28;20033;-74
2021/07/31 03:57:18;;;;;;;0.00;0.00;;;;;;;25.92;52.25;98352.25;5011109;28;20412;-74
2021/07/31 03:59:43;;;;;;;0.00;0.00;;;;;;;26.09;51.64;98367.09;5011866;28;20033;-74
2021/07/31 04:02:09;;;;;;;0.00;0.00;;;;;;;26.28;51.18;98354.09;5012349;28;20030;-74
2021/07/31 04:04:34;;;;;;;0.00;0.00;;;;;;;26.46;51.12;98357.53;5011624;28;20453;-74
2021/07/31 04:07:00;;;;;;;0.32;0.32;;;;;;;26.69;50.67;98358.97;5012399;28;20026;-75
2021/07/31 04:09:25;;;;;;;0.00;0.00;;;;;;;26.91;50.43;98356.09;5012309;28;20030;-75
2021/07/31 04:11:51;;;;;;;0.00;0.00;;;;;;;27.06;50.34;98360.31;5012049;28;20192;-75
2021/07/31 04:14:16;;;;;;;0.30;0.30;;;;;;;27.06;50.32;98363.06;5012199;28;20112;-75
2021/07/31 04:16:42;;;;;;;0.03;0.03;;;;;;;27.15;50.47;98368.84;5011709;28;20076;-75
2021/07/31 04:19:07;;;;;;;0.20;0.20;;;;;;;27.30;50.39;98364.00;5012072;28;20030;-75
2021/07/31 04:21:32;;;;;;;0.00;0.00;;;;;;;27.60;49.79;98370.03;5012041;28;20022;-75
2021/07/31 04:23:58;;;;;;;0.00;0.00;;;;;;;27.75;49.44;98384.44;5011609;28;20029;-75
2021/07/31 04:26:23;;;;;;;0.00;0.00;;;;;;;27.98;48.87;98378.28;5011667;28;20486;-74
2021/07/31 04:28:49;;;;;;;0.10;0.10;;;;;;;28.32;48.27;98382.22;5011804;28;20305;-75
2021/07/31 04:31:15;;;;;;;0.13;0.13;;;;;;;28.64;47.78;98384.56;5011750;28;20048;-75
2021/07/31 04:33:41;;;;;;;0.10;0.10;;;;;;;28.92;47.11;98379.84;5011682;28;20030;-75
2021/07/31 04:36:08;;;;;;;0.00;0.00;;;;;;;29.31;45.99;98391.44;5011772;28;20104;-77
2021/07/31 04:38:34;;;;;;;0.10;0.10;;;;;;;29.70;45.29;98387.25;5011822;28;20037;-76
2021/07/31 04:40:59;;;;;;;0.13;0.13;;;;;;;30.05;44.24;98395.28;5011805;28;20478;-76
2021/07/31 04:43:25;;;;;;;0.20;0.20;;;;;;;30.29;43.39;98394.00;5011727;28;20087;-76
2021/07/31 04:45:51;;;;;;;0.20;0.20;;;;;;;30.68;42.19;98388.88;5011207;28;20030;-76
2021/07/31 04:48:16;;;;;;;0.03;0.03;;;;;;;30.97;41.73;98388.22;5011202;28;20094;-76
2021/07/31 04:50:42;;;;;;;0.05;0.05;;;;;;;31.33;41.12;98395.63;5011396;28;20034;-76
2021/07/31 04:53:07;;;;;;;0.10;0.10;;;;;;;31.64;40.30;98403.56;5011296;28;20025;-76
2021/07/31 04:55:33;;;;;;;0.00;0.00;;;;;;;32.02;39.58;98399.38;5011554;28;20378;-75
2021/07/31 04:57:58;;;;;;;0.00;0.00;;;;;;;32.39;39.04;98406.25;5011403;28;20033;-76
2021/07/31 05:00:23;;;;;;;0.00;0.00;;;;;;;32.64;38.45;98404.75;5011237;28;20540;-76
2021/07/31 05:02:49;;;;;;;0.00;0.00;;;;;;;32.90;37.84;98402.00;5011229;28;20113;-76
2021/07/31 05:05:14;;;;;;;0.10;0.10;;;;;;;33.13;37.81;98405.63;5011336;28;20409;-76
2021/07/31 05:07:40;;;;;;;0.10;0.10;;;;;;;33.36;36.88;98396.97;5011013;28;20025;-76
2021/07/31 05:10:05;;;;;;;0.00;0.00;;;;;;;33.62;36.78;98399.66;5011452;28;20061;-76
2021/07/31 05:12:31;;;;;;;0.00;0.00;;;;;;;33.83;36.13;98405.72;5011706;28;20052;-77
2021/07/31 05:14:56;;;;;;;0.43;0.38;;;;;;;34.00;36.03;98401.50;5011168;28;20037;-76
2021/07/31 05:17:22;;;;;;;0.10;0.10;;;;;;;34.18;35.56;98405.66;5011435;28;20034;-76
2021/07/31 05:19:49;;;;;;;0.10;0.10;;;;;;;34.35;34.93;98400.66;5009767;28;20397;-76
2021/07/31 05:22:15;;;;;;;0.00;0.00;;;;;;;34.42;35.48;98394.84;5011282;28;20066;-76
2021/07/31 05:24:41;;;;;;;0.10;0.10;;;;;;;34.65;34.98;98401.13;5010772;28;20088;-77
2021/07/31 05:27:07;;;;;;;0.00;0.00;;;;;;;34.84;34.47;98406.75;5011450;28;20025;-76
2021/07/31 05:29:33;;;;;;;0.10;0.10;;;;;;;35.03;34.29;98402.81;5011168;28;20033;-76
2021/07/31 05:31:58;;;;;;;0.08;0.08;;;;;;;34.95;34.45;98407.91;5011111;28;20453;-76
2021/07/31 05:34:24;;;;;;;0.08;0.08;;;;;;;34.81;34.51;98400.09;5010856;28;20022;-76
2021/07/31 05:36:49;;;;;;;0.00;0.00;;;;;;;34.94;34.67;98411.16;5014705;28;20076;-76
2021/07/31 05:39:15;;;;;;;0.10;0.10;;;;;;;35.12;34.50;98410.44;5014020;28;20113;-76
2021/07/31 05:41:40;;;;;;;0.00;0.00;;;;;;;35.33;33.87;98407.97;5014989;28;20021;-76
2021/07/31 05:44:05;;;;;;;0.00;0.00;;;;;;;35.54;33.81;98411.91;5014986;28;20026;-76
2021/07/31 05:46:31;;;;;;;0.00;0.00;;;;;;;35.64;33.83;98404.34;5014995;28;20026;-76
2021/07/31 05:48:56;;;;;;;0.10;0.10;;;;;;;35.81;33.61;98413.91;5014577;28;20470;-76
2021/07/31 05:51:22;;;;;;;0.00;0.00;;;;;;;35.99;33.33;98409.63;5015031;28;20060;-76
2021/07/31 05:53:47;;;;;;;0.13;0.13;;;;;;;36.08;32.86;98409.59;5014744;28;20113;-76
2021/07/31 05:56:14;;;;;;;0.10;0.10;;;;;;;36.18;32.72;98408.34;5014579;28;20054;-77
2021/07/31 05:58:40;;;;;;;;;;;;;;;36.37;32.86;98419.41;5015150;28;20080;-76
2021/07/31 06:01:06;;;;;;;0.23;0.23;;;;;;;36.43;32.30;98416.81;5013178;28;19909;-76
2021/07/31 06:03:35;;;;;;;0.00;0.00;;;;;;;36.63;32.10;98425.38;5014832;28;20101;-76
2021/07/31 06:06:00;;;;;;;0.15;0.15;;;;;;;36.75;32.08;98412.50;5013072;28;20088;-77
2021/07/31 06:08:26;;;;;;;0.10;0.10;;;;;;;36.88;31.69;98419.91;5014344;28;20449;-76
2021/07/31 06:10:59;;;;;;;0.00;0.00;;;;;;;36.98;31.45;98415.84;5013094;28;20036;-76
2021/07/31 06:13:25;;;;;;;0.00;0.00;;;;;;;37.17;31.11;98410.91;5014413;28;20037;-76
2021/07/31 06:15:50;;;;;;;0.10;0.10;;;;;;;37.30;30.85;98414.22;5013998;28;20029;-76
2021/07/31 06:18:15;;;;;;;0.05;0.05;;;;;;;37.43;30.62;98413.28;5014132;28;20083;-77
2021/07/31 06:20:41;;;;;;;0.17;0.17;;;;;;;37.30;30.80;98411.44;5013941;28;20083;-77
2021/07/31 06:23:06;;;;;;;0.88;0.85;;;;;;;36.95;31.29;98413.97;5014411;28;20028;-77
2021/07/31 06:25:32;;;;;;;0.03;0.03;;;;;;;36.62;31.12;98418.28;5014186;28;20513;-76
2021/07/31 06:27:57;;;;;;;0.35;0.35;;;;;;;36.18;32.22;98415.91;5014055;28;20029;-76
2021/07/31 06:30:22;;;;;;;1.52;1.45;;;;;;;36.01;32.60;98421.81;5014249;28;20030;-76
2021/07/31 06:32:48;;;;;;;0.20;0.20;;;;;;;35.90;33.12;98418.72;5013622;28;20033;-76
2021/07/31 06:35:14;;;;;;;0.10;0.10;;;;;;;35.82;32.97;98428.59;5014236;28;20034;-77
2021/07/31 06:37:40;;;;;;;1.08;0.90;;;;;;;35.39;33.48;98426.41;5014320;28;20028;-76
2021/07/31 06:40:06;;;;;;;0.40;0.32;;;;;;;35.16;34.17;98426.97;5013517;28;20022;-76
2021/07/31 06:42:31;;;;;;;0.55;0.55;;;;;;;35.04;34.73;98423.81;5013955;28;20482;-76
2021/07/31 06:44:57;;;;;;;0.20;0.20;;;;;;;34.68;35.12;98416.91;5013371;28;20037;-76
2021/07/31 06:47:22;;;;;;;0.40;0.40;;;;;;;34.40;34.78;98424.28;5013500;28;20156;-76
2021/07/31 06:49:48;;;;;;;0.28;0.28;;;;;;;34.19;34.98;98425.84;5013569;28;20033;-77
2021/07/31 06:52:15;;;;;;;0.45;0.45;;;;;;;33.90;35.25;98433.19;5012610;28;20022;-76
2021/07/31 06:54:41;;;;;;;0.20;0.20;;;;;;;33.67;36.04;98432.34;5013480;28;20030;-76
2021/07/31 06:57:09;;;;;;;1.35;1.25;;;;;;;33.45;36.06;98432.31;5013654;28;20087;-76
2021/07/31 06:59:36;;;;;;;0.20;0.20;;;;;;;33.44;35.96;98428.00;5014020;28;20539;-77
2021/07/31 07:02:01;;;;;;;0.20;0.20;;;;;;;33.32;36.20;98429.56;5013531;28;20026;-76
2021/07/31 07:04:27;;;;;;;0.40;0.40;;;;;;;33.27;36.10;98427.31;5013955;28;20090;-76
2021/07/31 07:06:52;;;;;;;0.50;0.50;;;;;;;33.39;36.23;98427.78;5013275;28;20030;-76
2021/07/31 07:09:17;;;;;;;0.20;0.20;;;;;;;33.38;35.51;98435.31;5013685;28;20486;-76
2021/07/31 07:11:43;;;;;;;0.17;0.13;;;;;;;33.33;35.80;98433.88;5013085;28;20018;-78
2021/07/31 07:14:09;;;;;;;0.10;0.10;;;;;;;33.37;35.95;98431.00;5013504;28;20473;-76
2021/07/31 07:16:35;;;;;;;0.10;0.10;;;;;;;33.30;35.75;98423.69;5013110;28;20026;-76
2021/07/31 07:19:00;;;;;;;1.27;1.20;;;;;;;33.20;35.44;98424.78;5013113;28;20033;-76
2021/07/31 07:21:26;;;;;;;0.35;0.32;;;;;;;33.13;36.30;98422.25;5013436;28;20565;-76
2021/07/31 07:23:51;;;;;;;0.00;0.00;;;;;;;33.02;36.02;98420.59;5013442;28;20026;-77
2021/07/31 07:26:17;;;;;;;0.38;0.20;;;;;;;33.00;36.53;98428.56;5013143;28;20057;-77
2021/07/31 07:28:42;;;;;;;0.20;0.20;;;;;;;32.93;37.24;98428.78;5013025;28;20444;-76
2021/07/31 07:31:12;;;;;;;1.10;0.80;;;;;;;32.97;37.59;98425.91;5012533;28;20029;-76
2021/07/31 07:33:38;;;;;;;0.52;0.52;;;;;;;32.98;37.27;98431.03;5013080;28;20052;-76
2021/07/31 07:36:23;;;;;;;0.10;0.10;;;;;;;33.02;35.63;98428.91;5012740;28;20069;-77
2021/07/31 07:38:49;;;;;;;0.00;0.00;;;;;;;32.98;36.11;98433.00;5012130;28;20038;-76
2021/07/31 07:41:15;;;;;;;0.00;0.00;;;;;;;32.93;35.73;98430.81;5013237;28;20485;-76
2021/07/31 07:43:41;;;;;;;0.65;0.65;;;;;;;32.89;35.56;98428.16;5011481;28;20404;-77
2021/07/31 07:46:06;;;;;;;0.20;0.20;;;;;;;32.80;36.32;98431.59;5012421;28;20025;-76
2021/07/31 07:48:32;;;;;;;8.07;1.42;;;;;;;32.83;34.77;98421.63;5012736;28;20056;-76
2021/07/31 07:50:58;;;;;;;0.30;0.30;;;;;;;32.75;34.32;98428.56;5012435;28;20030;-77
2021/07/31 07:53:23;;;;;;;0.30;0.30;;;;;;;32.69;34.38;98431.09;5012524;28;20036;-76
2021/07/31 07:55:49;;;;;;;0.10;0.10;;;;;;;32.63;34.92;98421.78;5012147;28;20061;-76
2021/07/31 07:58:14;;;;;;;1.35;0.43;;;;;;;32.57;35.62;98427.09;5011954;28;20484;-76
2021/07/31 08:00:43;;;;;;;0.17;0.13;;;;;;;32.57;36.09;98427.88;5011325;28;20057;-76
2021/07/31 08:03:08;;;;;;;0.52;0.52;;;;;;;32.59;35.55;98424.66;5012234;28;20057;-76
2021/07/31 08:05:37;;;;;;;0.20;0.20;;;;;;;32.52;35.78;98422.09;5012292;28;20216;-76
2021/07/31 08:08:04;;;;;;;0.10;0.10;;;;;;;32.51;36.33;98410.25;5012132;28;20084;-75
2021/07/31 08:10:30;;;;;;;0.17;0.17;;;;;;;32.63;36.48;98416.25;5012411;28;20045;-75
2021/07/31 08:12:55;;;;;;;0.10;0.10;;;;;;;32.73;35.93;98409.63;5011720;28;20034;-75
2021/07/31 08:15:21;;;;;;;0.20;0.20;;;;;;;32.83;35.95;98407.78;5011928;28;20115;-76
2021/07/31 08:17:46;;;;;;;0.40;0.28;;;;;;;32.88;35.85;98405.19;5011856;28;20441;-75
2021/07/31 08:20:12;;;;;;;0.50;0.50;;;;;;;32.97;35.92;98396.25;5012121;28;20536;-75
2021/07/31 08:22:37;;;;;;;0.30;0.30;;;;;;;33.01;35.35;98398.91;5011814;28;20509;-76
2021/07/31 08:25:03;;;;;;;0.60;0.20;;;;;;;33.01;35.19;98405.19;5011870;28;20104;-76
2021/07/31 08:27:29;;;;;;;0.05;0.05;;;;;;;32.96;34.85;98404.97;5011997;28;20109;-77
2021/07/31 08:29:54;;;;;;;0.20;0.20;;;;;;;33.04;35.80;98403.53;5011798;28;20496;-76
2021/07/31 08:32:20;;;;;;;0.25;0.25;;;;;;;33.02;35.97;98403.19;5011986;28;20040;-75
2021/07/31 08:34:45;;;;;;;0.00;0.00;;;;;;;33.01;34.74;98399.66;5011892;28;20601;-76
2021/07/31 08:37:11;;;;;;;0.20;0.20;;;;;;;32.99;34.89;98399.31;5011458;28;20045;-76
2021/07/31 08:39:37;;;;;;;0.10;0.10;;;;;;;32.99;35.54;98387.47;5011915;28;20473;-77
2021/07/31 08:42:06;;;;;;;0.05;0.05;;;;;;;33.01;35.50;98391.34;5011633;28;20085;-76
2021/07/31 08:44:35;;;;;;;0.28;0.28;;;;;;;33.01;35.36;98394.13;5011835;28;20117;-75
2021/07/31 08:47:05;;;;;;;0.38;0.38;;;;;;;33.08;35.17;98395.13;5011532;28;20030;-75
2021/07/31 08:49:36;;;;;;;0.38;0.38;;;;;;;33.12;35.88;98387.47;5012016;28;20044;-75
2021/07/31 08:52:03;;;;;;;0.08;0.08;;;;;;;33.25;35.63;98385.47;5010113;28;20397;-75
2021/07/31 08:54:29;;;;;;;0.28;0.28;;;;;;;33.36;34.93;98388.66;5011641;28;20029;-78
2021/07/31 08:56:55;;;;;;;0.20;0.20;;;;;;;33.36;33.60;98380.34;5011523;28;20036;-78
2021/07/31 08:59:25;;;;;;;0.15;0.15;;;;;;;33.38;33.88;98371.59;5010364;28;20485;-78
2021/07/31 09:01:51;;;;;;;0.30;0.30;;;;;;;33.48;33.84;98377.97;5011344;28;20485;-77
2021/07/31 09:04:18;;;;;;;0.00;0.00;;;;;;;33.63;33.50;98378.25;5011577;28;20109;-77
2021/07/31 09:06:45;;;;;;;0.13;0.13;;;;;;;33.72;33.53;98369.25;5011473;28;20480;-77
2021/07/31 09:09:10;;;;;;;0.30;0.30;;;;;;;33.87;33.94;98375.84;5011486;28;20425;-77
2021/07/31 09:12:03;;;;;;;0.00;0.00;;;;;;;33.97;32.79;98374.69;5011200;28;20030;-79
2021/07/31 09:14:29;;;;;;;0.05;0.05;;;;;;;34.02;31.99;98361.47;5011677;28;20456;-77
2021/07/31 09:16:56;;;;;;;0.08;0.08;;;;;;;34.08;31.41;98362.41;5011305;28;20040;-77
2021/07/31 09:19:21;;;;;;;0.57;0.57;;;;;;;34.15;32.08;98376.81;5010225;28;20038;-77
2021/07/31 09:21:50;;;;;;;0.32;0.32;;;;;;;34.24;31.25;98366.97;5011464;28;20033;-76
2021/07/31 09:24:22;;;;;;;0.10;0.10;;;;;;;34.33;31.62;98372.59;5011277;28;20034;-77
2021/07/31 09:26:51;;;;;;;0.20;0.20;;;;;;;34.42;31.77;98371.88;5011362;28;20053;-76
2021/07/31 09:29:17;;;;;;;0.10;0.10;;;;;;;34.52;31.73;98373.47;5011343;28;20048;-76
2021/07/31 09:31:46;;;;;;;0.10;0.10;;;;;;;34.67;31.45;98370.13;5011367;28;20042;-75
2021/07/31 09:34:24;;;;;;;0.00;0.00;;;;;;;34.77;31.23;98366.91;5010946;28;20033;-77
2021/07/31 09:36:49;;;;;;;0.57;0.57;;;;;;;34.71;30.84;98368.75;5011453;28;20029;-77
2021/07/31 09:39:15;;;;;;;0.20;0.20;;;;;;;34.63;29.86;98353.59;5011237;28;20524;-77
2021/07/31 09:41:42;;;;;;;1.15;1.05;;;;;;;34.53;30.87;98357.59;5011265;28;20560;-77
2021/07/31 09:44:13;;;;;;;0.10;0.10;;;;;;;34.52;30.75;98353.25;5010949;28;20105;-76
2021/07/31 09:46:40;;;;;;;0.57;0.32;;;;;;;34.52;30.81;98350.50;5011432;28;20045;-76
2021/07/31 09:49:07;;;;;;;0.57;0.55;;;;;;;34.56;31.09;98338.00;5010940;28;20405;-76
2021/07/31 09:51:35;;;;;;;0.22;0.22;;;;;;;34.62;31.66;98341.75;5011080;28;20500;-76
2021/07/31 09:54:02;;;;;;;0.10;0.10;;;;;;;34.71;31.39;98341.00;5010819;28;20500;-76
2021/07/31 09:56:30;;;;;;;0.13;0.13;;;;;;;34.80;31.38;98334.69;5011126;28;20677;-76
2021/07/31 09:59:00;;;;;;;0.40;0.40;;;;;;;34.94;30.88;98328.56;5010801;28;20467;-77
2021/07/31 10:01:27;;;;;;;0.00;0.00;;;;;;;35.02;30.24;98329.06;5011141;28;20220;-76
2021/07/31 10:03:53;;;;;;;;;;;;;;;35.10;29.56;98327.50;5011483;28;20033;-76
2021/07/31 10:06:20;;;;;;;0.22;0.22;;;;;;;35.13;29.21;98325.06;5011108;28;19913;-76
2021/07/31 10:08:46;;;;;;;0.10;0.10;;;;;;;35.14;28.81;98327.38;5010987;28;20105;-76
2021/07/31 10:11:12;;;;;;;0.38;0.38;;;;;;;35.15;28.46;98320.56;5010872;28;20108;-78
2021/07/31 10:13:37;;;;;;;0.47;0.45;;;;;;;35.11;28.64;98309.63;5010956;28;20022;-77
2021/07/31 10:16:03;;;;;;;0.10;0.10;;;;;;;35.17;29.03;98309.78;5010857;28;20137;-77
2021/07/31 10:18:29;;;;;;;0.10;0.10;;;;;;;35.20;29.53;98314.41;5010996;28;20044;-77
2021/07/31 10:21:04;;;;;;;0.20;0.20;;;;;;;35.18;28.85;98300.22;5010927;28;20080;-77
2021/07/31 10:24:01;;;;;;;0.20;0.20;;;;;;;35.23;29.00;98296.81;5014501;28;20548;-77
2021/07/31 10:26:28;;;;;;;1.67;1.38;;;;;;;35.23;28.56;98296.03;5012733;28;20050;-77
2021/07/31 10:28:55;;;;;;;0.90;0.50;;;;;;;35.19;28.22;98293.44;5014301;28;20037;-77
2021/07/31 10:31:34;;;;;;;1.70;1.45;;;;;;;35.08;28.24;98293.88;5014444;28;20026;-77
2021/07/31 10:34:00;;;;;;;2.05;1.85;;;;;;;35.04;28.15;98293.25;5014385;28;20042;-77
2021/07/31 10:36:38;;;;;;;0.50;0.50;;;;;;;35.02;28.20;98281.84;5013870;28;20304;-76
2021/07/31 10:39:25;;;;;;;0.57;0.57;;;;;;;35.04;28.25;98276.56;5013968;28;20033;-76
2021/07/31 10:41:58;;;;;;;0.13;0.13;;;;;;;35.09;28.42;98287.06;5014158;28;20029;-77
2021/07/31 10:44:25;;;;;;;0.38;0.38;;;;;;;35.11;28.01;98283.84;5013710;28;20453;-77
2021/07/31 10:47:22;;;;;;;0.63;0.40;;;;;;;35.15;27.67;98278.13;5014030;28;20026;-77
2021/07/31 10:49:48;;;;;;;0.22;0.22;;;;;;;35.22;28.43;98275.06;5014067;28;20045;-76
2021/07/31 10:52:49;;;;;;;0.10;0.10;;;;;;;35.30;28.01;98269.94;5013798;28;20030;-76
2021/07/31 10:55:15;;;;;;;0.47;0.47;;;;;;;35.36;27.57;98265.31;5012498;28;20077;-77
2021/07/31 10:57:52;;;;;;;1.45;1.42;;;;;;;35.35;27.62;98272.09;5013618;28;20108;-77
2021/07/31 11:00:37;;;;;;;0.20;0.20;;;;;;;35.39;27.11;98265.19;5012391;28;20030;-76
2021/07/31 11:03:05;;;;;;;1.08;0.73;;;;;;;35.43;27.28;98263.00;5013349;28;20121;-77
2021/07/31 11:05:54;;;;;;;0.08;0.08;;;;;;;35.51;26.85;98265.47;5014175;28;20036;-77
2021/07/31 11:08:30;;;;;;;0.40;0.40;;;;;;;35.51;26.98;98259.91;5010371;28;20034;-76
2021/07/31 11:10:56;;;;;;;0.25;0.25;;;;;;;35.55;27.42;98252.94;5013406;28;20030;-77
2021/07/31 11:13:22;;;;;;;0.73;0.73;;;;;;;35.58;26.59;98257.59;5013461;28;20046;-77
2021/07/31 11:15:56;;;;;;;0.20;0.20;;;;;;;35.59;26.61;98256.31;5013365;28;20045;-77
2021/07/31 11:18:25;;;;;;;0.40;0.40;;;;;;;35.61;26.53;98249.53;5013519;28;20029;-76
2021/07/31 11:20:51;;;;;;;0.20;0.20;;;;;;;35.68;26.57;98246.44;5013099;28;20023;-76
2021/07/31 11:23:18;;;;;;;0.32;0.32;;;;;;;35.76;26.60;98244.13;5012795;28;20477;-76
2021/07/31 11:25:45;;;;;;;0.22;0.22;;;;;;;35.81;26.58;98233.09;5011691;28;20568;-77
2021/07/31 11:28:10;;;;;;;0.45;0.45;;;;;;;35.90;25.51;98237.88;5012656;28;20148;-77
2021/07/31 11:30:40;;;;;;;0.15;0.15;;;;;;;35.95;25.22;98228.13;5013235;28;20073;-77
2021/07/31 11:33:25;;;;;;;0.10;0.10;;;;;;;35.97;25.65;98234.00;5011785;28;20099;-77